Time;durP1;ratioP1;P1;durP2;ratioP2;P2;SDS_P1;SDS_P2;PMS_P1;PMS_P2;Temp;Humidity;BMP_temperature;BMP_pressure;BME280_temperature;BME280_humidity;BME280_pressure;Samples;Min_cycle;Max_cycle;Signal;HPM_P1;HPM_P2
2024/04/04 00:02:26;;;;;;;10.10;2.35;;;10.30;99.90;;;;;;5049639;28;20565;-84
2024/04/04 00:05:02;;;;;;;11.20;2.20;;;10.30;99.90;;;;;;5052107;28;20045;-84
2024/04/04 00:07:30;;;;;;;15.13;3.00;;;10.30;99.90;;;;;;5039144;28;20068;-84
2024/04/04 00:10:00;;;;;;;11.23;2.15;;;10.30;99.90;;;;;;5042762;28;20052;-85
2024/04/04 00:12:27;;;;;;;9.73;2.70;;;10.30;99.90;;;;;;5035829;28;20486;-84
2024/04/04 00:14:54;;;;;;;14.07;3.10;;;10.30;99.90;;;;;;5047090;28;20037;-84
2024/04/04 00:17:21;;;;;;;10.98;2.72;;;10.30;99.90;;;;;;5045622;28;20060;-85
2024/04/04 00:19:48;;;;;;;11.75;2.45;;;10.30;99.90;;;;;;5029547;28;20042;-84
2024/04/04 00:22:15;;;;;;;16.95;2.75;;;10.30;99.90;;;;;;5034618;28;20037;-84
2024/04/04 00:24:42;;;;;;;11.15;2.78;;;10.30;99.90;;;;;;5037168;28;20046;-84
2024/04/04 00:27:08;;;;;;;14.25;2.70;;;10.30;99.90;;;;;;5029883;28;20052;-85
2024/04/04 00:29:35;;;;;;;13.98;2.72;;;10.30;99.90;;;;;;5054372;28;20048;-84
2024/04/04 00:32:03;;;;;;;11.88;2.65;;;10.30;99.90;;;;;;5041280;28;20042;-85
2024/04/04 00:34:32;;;;;;;12.15;2.53;;;10.30;99.90;;;;;;5038396;28;20033;-85
2024/04/04 00:37:00;;;;;;;18.77;2.72;;;10.30;99.90;;;;;;5041007;28;20498;-85
2024/04/04 00:39:30;;;;;;;16.88;3.13;;;10.30;99.90;;;;;;5044282;28;20510;-84
2024/04/04 00:41:56;;;;;;;16.60;2.55;;;10.30;99.90;;;;;;5035777;28;20044;-84
2024/04/04 00:44:23;;;;;;;16.65;3.53;;;10.30;99.90;;;;;;5037381;28;20038;-84
2024/04/04 00:46:50;;;;;;;15.85;3.00;;;10.30;99.90;;;;;;5033039;28;20127;-84
2024/04/04 00:49:17;;;;;;;13.25;2.67;;;10.30;99.90;;;;;;5038341;28;20050;-85
2024/04/04 00:51:43;;;;;;;13.45;2.78;;;10.30;99.90;;;;;;5050505;28;20030;-84
2024/04/04 00:54:10;;;;;;;19.63;3.38;;;10.30;99.90;;;;;;5056999;28;20041;-85
2024/04/04 00:56:37;;;;;;;8.55;2.33;;;10.30;99.90;;;;;;5049357;28;20096;-84
2024/04/04 00:59:05;;;;;;;16.35;4.28;;;10.30;99.90;;;;;;5041488;28;20048;-84
2024/04/04 01:01:32;;;;;;;16.48;3.22;;;10.30;99.90;;;;;;5048987;28;20044;-85
2024/04/04 01:03:59;;;;;;;11.68;2.55;;;10.30;99.90;;;;;;5050542;28;20037;-85
2024/04/04 01:06:30;;;;;;;15.07;3.35;;;10.40;99.90;;;;;;5041630;28;20058;-85
2024/04/04 01:09:00;;;;;;;8.98;2.70;;;10.20;99.90;;;;;;5040113;28;20072;-84
2024/04/04 01:11:27;;;;;;;13.82;2.97;;;10.20;99.90;;;;;;5038753;28;20045;-84
2024/04/04 01:13:54;;;;;;;15.57;3.20;;;10.20;99.90;;;;;;5040972;28;20041;-84
2024/04/04 01:16:21;;;;;;;12.98;3.15;;;10.20;99.90;;;;;;5064940;28;20490;-85
2024/04/04 01:18:47;;;;;;;15.95;2.88;;;10.20;99.90;;;;;;5035837;28;20034;-85
2024/04/04 01:21:14;;;;;;;13.65;3.42;;;10.30;99.90;;;;;;5062262;28;20026;-85
2024/04/04 01:23:42;;;;;;;17.77;3.15;;;10.70;99.90;;;;;;5059674;28;20109;-85
2024/04/04 01:26:09;;;;;;;13.82;2.83;;;10.20;99.90;;;;;;5048648;28;20034;-84
2024/04/04 01:28:36;;;;;;;19.63;2.80;;;10.20;99.90;;;;;;5053043;28;20033;-85
2024/04/04 01:31:08;;;;;;;16.65;3.45;;;10.20;99.90;;;;;;5046727;28;20180;-85
2024/04/04 01:33:34;;;;;;;13.57;3.00;;;10.20;99.90;;;;;;5049306;28;20814;-85
2024/04/04 01:36:01;;;;;;;15.73;2.95;;;10.20;99.90;;;;;;5039538;28;20102;-85
2024/04/04 01:38:28;;;;;;;13.40;3.15;;;10.20;99.90;;;;;;5054304;28;20041;-85
2024/04/04 01:40:55;;;;;;;13.00;2.20;;;10.20;99.90;;;;;;5032353;28;20038;-84
2024/04/04 01:43:22;;;;;;;18.55;3.47;;;10.20;99.90;;;;;;5040585;28;20045;-85
2024/04/04 01:45:48;;;;;;;14.98;2.72;;;10.20;99.90;;;;;;5050450;28;20497;-84
2024/04/04 01:48:15;;;;;;;14.38;2.60;;;10.10;99.90;;;;;;5053956;28;20052;-84
2024/04/04 01:50:42;;;;;;;11.98;2.83;;;10.10;99.90;;;;;;5047495;28;20148;-84
2024/04/04 01:53:08;;;;;;;14.27;2.60;;;10.10;99.90;;;;;;5037269;28;20041;-84
2024/04/04 01:55:35;;;;;;;14.20;2.88;;;10.00;99.90;;;;;;5041112;28;20486;-85
2024/04/04 01:58:02;;;;;;;13.00;2.55;;;10.00;99.90;;;;;;5050179;28;20037;-84
2024/04/04 02:00:28;;;;;;;13.80;2.88;;;10.00;99.90;;;;;;5040327;28;20076;-84
2024/04/04 02:02:55;;;;;;;11.18;2.30;;;9.90;99.90;;;;;;5036461;28;20547;-85
2024/04/04 02:05:22;;;;;;;10.50;2.38;;;10.50;99.90;;;;;;5031300;28;20451;-85
2024/04/04 02:07:48;;;;;;;16.98;2.92;;;9.90;99.90;;;;;;5047060;28;20073;-84
2024/04/04 02:10:15;;;;;;;17.80;2.97;;;9.90;99.90;;;;;;5038748;28;20128;-84
2024/04/04 02:12:42;;;;;;;15.43;3.08;;;9.80;99.90;;;;;;5040993;28;20072;-84
2024/04/04 02:15:12;;;;;;;13.70;2.40;;;9.80;99.90;;;;;;5032503;28;20049;-85
2024/04/04 02:17:40;;;;;;;19.65;3.03;;;9.80;99.90;;;;;;5040863;28;20461;-85
2024/04/04 02:20:13;;;;;;;17.38;3.00;;;10.20;99.90;;;;;;5059311;28;20049;-85
2024/04/04 02:22:40;;;;;;;10.15;2.28;;;9.70;99.90;;;;;;5044436;28;20030;-84
2024/04/04 02:25:09;;;;;;;9.85;2.40;;;9.60;99.90;;;;;;5047326;28;20443;-85
2024/04/04 02:27:36;;;;;;;17.00;2.40;;;9.50;99.90;;;;;;5043235;28;20038;-85
2024/04/04 02:30:03;;;;;;;13.07;2.80;;;9.50;99.90;;;;;;5038445;28;20827;-84
2024/04/04 02:32:30;;;;;;;11.65;2.20;;;9.40;99.90;;;;;;5040576;28;20045;-85
2024/04/04 02:34:56;;;;;;;17.13;3.13;;;9.40;99.90;;;;;;5038904;28;20063;-85
2024/04/04 02:37:23;;;;;;;14.20;3.00;;;9.30;99.90;;;;;;5048999;28;20037;-85
2024/04/04 02:39:50;;;;;;;11.55;2.55;;;9.30;99.90;;;;;;5038412;28;20495;-84
2024/04/04 02:42:16;;;;;;;13.23;2.50;;;9.30;99.90;;;;;;5050145;28;20037;-84
2024/04/04 02:44:43;;;;;;;13.48;2.55;;;9.20;99.90;;;;;;5046448;28;20115;-84
2024/04/04 02:47:10;;;;;;;12.90;2.22;;;9.20;99.90;;;;;;5062335;28;20041;-85
2024/04/04 02:49:36;;;;;;;9.65;2.00;;;9.20;99.90;;;;;;5048786;28;20049;-84
2024/04/04 02:52:03;;;;;;;10.32;2.35;;;9.10;99.90;;;;;;5037269;28;20040;-84
2024/04/04 02:54:30;;;;;;;15.95;3.05;;;9.00;99.90;;;;;;5031004;28;20133;-84
2024/04/04 02:56:57;;;;;;;17.30;2.92;;;9.50;99.90;;;;;;5037736;28;20072;-85
2024/04/04 02:59:23;;;;;;;13.55;2.92;;;9.70;99.90;;;;;;5037188;28;20088;-84
2024/04/04 03:01:50;;;;;;;13.90;2.60;;;8.90;99.90;;;;;;5032191;28;20494;-84
2024/04/04 03:04:17;;;;;;;10.85;1.95;;;8.90;99.90;;;;;;5030789;28;20121;-84
2024/04/04 03:06:43;;;;;;;13.80;2.33;;;8.80;99.90;;;;;;5043484;28;20060;-84
2024/04/04 03:09:11;;;;;;;13.57;2.65;;;8.80;99.90;;;;;;5037824;28;20043;-85
2024/04/04 03:11:37;;;;;;;12.52;2.55;;;8.90;99.90;;;;;;5034384;28;20042;-84
2024/04/04 03:14:04;;;;;;;12.45;2.53;;;8.90;99.90;;;;;;5057107;28;20036;-84
2024/04/04 03:16:31;;;;;;;18.35;2.85;;;8.70;99.90;;;;;;5050223;28;20041;-84
2024/04/04 03:18:57;;;;;;;12.48;2.30;;;8.90;99.90;;;;;;5036762;28;20131;-84
2024/04/04 03:21:24;;;;;;;10.73;2.00;;;8.60;99.90;;;;;;5060708;28;20081;-84
2024/04/04 03:23:50;;;;;;;11.00;1.98;;;8.50;99.90;;;;;;5057474;28;20437;-84
2024/04/04 03:26:20;;;;;;;9.40;1.80;;;8.50;99.90;;;;;;5037565;28;20486;-84
2024/04/04 03:28:47;;;;;;;11.02;2.40;;;8.70;99.90;;;;;;5037036;28;20034;-84
2024/04/04 03:31:13;;;;;;;10.70;2.10;;;8.40;99.90;;;;;;5058993;28;20045;-84
2024/04/04 03:33:41;;;;;;;8.95;1.85;;;8.40;99.90;;;;;;5037340;28;20100;-85
2024/04/04 03:36:08;;;;;;;10.27;2.22;;;8.40;99.90;;;;;;5030650;28;20447;-84
2024/04/04 03:38:34;;;;;;;17.27;2.65;;;8.40;99.90;;;;;;5034024;28;20034;-84
2024/04/04 03:41:01;;;;;;;10.73;2.08;;;8.40;99.90;;;;;;5039243;28;20048;-84
2024/04/04 03:43:28;;;;;;;11.40;1.98;;;8.40;99.90;;;;;;5036968;28;20069;-84
2024/04/04 03:45:54;;;;;;;10.30;1.98;;;8.60;99.90;;;;;;5037701;28;20100;-84
2024/04/04 03:48:21;;;;;;;14.13;2.58;;;8.60;99.90;;;;;;5036615;28;20064;-84
2024/04/04 03:50:48;;;;;;;9.18;1.85;;;9.10;99.90;;;;;;5040104;28;20095;-84
2024/04/04 03:53:15;;;;;;;12.80;2.42;;;8.40;99.90;;;;;;5031545;28;20125;-83
2024/04/04 03:55:42;;;;;;;9.80;2.30;;;8.40;99.90;;;;;;5038338;28;20045;-84
2024/04/04 03:58:09;;;;;;;9.30;1.70;;;8.30;99.90;;;;;;5046237;28;20077;-84
2024/04/04 04:00:36;;;;;;;15.32;1.90;;;8.30;99.90;;;;;;5038978;28;20037;-85
2024/04/04 04:03:04;;;;;;;8.55;1.77;;;8.30;99.90;;;;;;5033519;28;20042;-84
2024/04/04 04:05:31;;;;;;;12.07;2.40;;;8.30;99.90;;;;;;5029773;28;20121;-84
2024/04/04 04:07:58;;;;;;;11.63;1.83;;;8.50;99.90;;;;;;5045245;28;20053;-84
2024/04/04 04:10:28;;;;;;;11.88;2.38;;;8.30;99.90;;;;;;5029796;28;20201;-84
2024/04/04 04:12:54;;;;;;;10.45;2.30;;;8.30;99.90;;;;;;5036546;28;20034;-83
2024/04/04 04:15:22;;;;;;;13.82;2.92;;;8.50;99.90;;;;;;5049276;28;20038;-85
2024/04/04 04:17:52;;;;;;;11.27;2.05;;;8.30;99.90;;;;;;5036293;28;20498;-84
2024/04/04 04:23:06;;;;;;;6.32;1.70;;;8.30;99.90;;;;;;5049236;28;20075;-84
2024/04/04 04:25:33;;;;;;;6.68;1.90;;;8.30;99.90;;;;;;5036185;28;20091;-84
2024/04/04 04:28:00;;;;;;;8.95;1.88;;;8.70;99.90;;;;;;5049951;28;20064;-84
2024/04/04 04:30:26;;;;;;;10.15;1.63;;;8.40;99.90;;;;;;5042789;28;20037;-85
2024/04/04 04:32:53;;;;;;;5.57;1.73;;;9.40;99.90;;;;;;5032301;28;20054;-84
2024/04/04 04:35:22;;;;;;;5.88;1.58;;;8.40;99.90;;;;;;5034002;28;20038;-84
2024/04/04 04:37:52;;;;;;;10.13;1.75;;;8.70;99.90;;;;;;5040279;28;20053;-84
2024/04/04 04:40:21;;;;;;;10.02;1.48;;;8.40;99.90;;;;;;5029582;28;20041;-84
2024/04/04 04:42:48;;;;;;;10.27;2.05;;;8.50;99.90;;;;;;5033429;28;20466;-84
2024/04/04 04:45:16;;;;;;;9.52;1.90;;;8.50;99.90;;;;;;5029983;28;20041;-83
2024/04/04 04:47:43;;;;;;;7.78;1.73;;;8.50;99.90;;;;;;5029304;28;20072;-84
2024/04/04 04:50:10;;;;;;;6.70;1.40;;;8.70;99.90;;;;;;5042466;28;20037;-84
2024/04/04 04:52:36;;;;;;;13.20;1.95;;;8.50;99.90;;;;;;5030825;28;20133;-84
2024/04/04 04:55:05;;;;;;;6.57;1.70;;;8.60;99.90;;;;;;5045511;28;20041;-84
2024/04/04 04:57:32;;;;;;;8.23;1.60;;;8.60;99.90;;;;;;5061144;28;20081;-84
2024/04/04 04:59:58;;;;;;;7.35;1.70;;;8.60;99.90;;;;;;5039332;28;20230;-85
2024/04/04 05:02:25;;;;;;;6.82;1.92;;;9.20;99.90;;;;;;5053627;28;20406;-84
2024/04/04 05:04:52;;;;;;;8.65;1.88;;;8.70;99.90;;;;;;5037401;28;20485;-84
2024/04/04 05:07:19;;;;;;;6.97;1.35;;;8.60;99.90;;;;;;5039980;28;20544;-84
2024/04/04 05:09:45;;;;;;;6.28;1.65;;;8.60;99.90;;;;;;5031355;28;20040;-84
2024/04/04 05:12:12;;;;;;;10.65;1.70;;;9.40;99.90;;;;;;5038861;28;20049;-85
2024/04/04 05:14:39;;;;;;;5.50;1.77;;;8.70;99.90;;;;;;5032741;28;20061;-85
2024/04/04 05:17:06;;;;;;;9.75;1.83;;;9.40;99.90;;;;;;5039345;28;20034;-85
2024/04/04 05:19:32;;;;;;;9.98;1.52;;;8.70;99.90;;;;;;5039449;28;20384;-84
2024/04/04 05:21:59;;;;;;;6.47;1.83;;;8.70;99.90;;;;;;5039449;28;21815;-85
2024/04/04 05:24:25;;;;;;;5.45;1.38;;;8.70;99.90;;;;;;5047214;28;20073;-84
2024/04/04 05:26:52;;;;;;;8.65;1.60;;;8.80;99.90;;;;;;5039237;28;20037;-85
2024/04/04 05:29:19;;;;;;;5.45;1.30;;;8.70;99.90;;;;;;5038386;28;20060;-84
2024/04/04 05:31:45;;;;;;;5.35;1.20;;;8.80;99.90;;;;;;5035559;28;20073;-84
2024/04/04 05:34:14;;;;;;;6.25;1.45;;;8.80;99.90;;;;;;5040795;28;20490;-85
2024/04/04 05:36:41;;;;;;;6.10;1.55;;;8.80;99.90;;;;;;5037904;28;20034;-85
2024/04/04 05:39:08;;;;;;;7.70;1.40;;;8.80;99.90;;;;;;5049124;28;20049;-84
2024/04/04 05:41:35;;;;;;;7.63;1.60;;;8.80;99.90;;;;;;5050545;28;20030;-85
2024/04/04 05:44:01;;;;;;;7.60;1.33;;;9.70;99.90;;;;;;5038591;28;20041;-85
2024/04/04 05:46:28;;;;;;;6.53;1.50;;;8.90;99.90;;;;;;5046702;28;20097;-84
2024/04/04 05:48:56;;;;;;;6.75;1.50;;;9.40;99.90;;;;;;5034992;28;20034;-84
2024/04/04 05:51:24;;;;;;;9.20;1.60;;;9.20;99.90;;;;;;5042807;28;20781;-84
2024/04/04 05:53:50;;;;;;;6.20;1.42;;;8.90;99.90;;;;;;5042527;28;20066;-85
2024/04/04 05:56:17;;;;;;;4.43;1.27;;;8.90;99.90;;;;;;5037127;28;20114;-84
2024/04/04 05:58:44;;;;;;;4.78;1.48;;;8.90;99.90;;;;;;5038819;28;20038;-84
2024/04/04 06:01:11;;;;;;;3.83;1.38;;;9.00;99.90;;;;;;5043514;28;20120;-84
2024/04/04 06:03:39;;;;;;;10.60;1.60;;;9.40;99.90;;;;;;5041096;28;20041;-84
2024/04/04 06:06:06;;;;;;;5.53;1.42;;;9.00;99.90;;;;;;5060951;28;20554;-84
2024/04/04 06:08:33;;;;;;;6.78;1.40;;;9.00;99.90;;;;;;5041843;28;20115;-84
2024/04/04 06:10:59;;;;;;;3.22;1.40;;;9.00;99.90;;;;;;5049709;28;20045;-84
2024/04/04 06:13:27;;;;;;;7.10;1.50;;;9.00;99.90;;;;;;5031963;28;20038;-84
2024/04/04 06:15:55;;;;;;;6.70;1.48;;;9.00;99.90;;;;;;5041421;28;20103;-84
2024/04/04 06:18:21;;;;;;;8.40;1.60;;;9.00;99.90;;;;;;5044216;28;20542;-84
2024/04/04 06:20:48;;;;;;;7.88;1.63;;;9.30;99.90;;;;;;5043536;28;20113;-84
2024/04/04 06:23:15;;;;;;;10.85;1.83;;;9.00;99.90;;;;;;5031063;28;20042;-84
2024/04/04 06:25:41;;;;;;;4.35;1.45;;;9.00;99.90;;;;;;5038562;28;20050;-80
2024/04/04 06:28:08;;;;;;;8.35;1.70;;;9.00;99.90;;;;;;5056432;28;20048;-84
2024/04/04 06:30:35;;;;;;;6.28;1.65;;;9.10;99.90;;;;;;5042008;28;20486;-83
2024/04/04 06:33:05;;;;;;;7.22;2.20;;;9.30;99.90;;;;;;5043294;28;20034;-83
2024/04/04 06:35:32;;;;;;;6.72;1.67;;;9.10;99.90;;;;;;5037096;28;20044;-84
2024/04/04 06:37:58;;;;;;;6.65;1.88;;;9.20;99.90;;;;;;5039417;28;20042;-84
2024/04/04 06:40:26;;;;;;;5.82;1.90;;;10.10;99.90;;;;;;5049761;28;20746;-84
2024/04/04 06:42:53;;;;;;;7.50;2.10;;;9.20;99.90;;;;;;5047596;28;20056;-83
2024/04/04 06:45:19;;;;;;;8.32;2.03;;;9.20;99.90;;;;;;5038596;28;20041;-84
2024/04/04 06:47:55;;;;;;;7.38;2.20;;;10.10;99.90;;;;;;5042444;28;20041;-83
2024/04/04 06:50:25;;;;;;;10.38;2.15;;;9.20;99.90;;;;;;5037929;28;20046;-84
2024/04/04 06:52:53;;;;;;;7.22;2.20;;;9.20;99.90;;;;;;5036274;28;20103;-84
2024/04/04 06:55:19;;;;;;;5.65;1.92;;;9.40;99.90;;;;;;5055511;28;20041;-84
2024/04/04 06:57:47;;;;;;;8.25;2.35;;;9.20;99.90;;;;;;5038883;28;20061;-84
2024/04/04 07:00:14;;;;;;;13.85;2.35;;;9.30;99.90;;;;;;5037358;28;20060;-84
2024/04/04 07:02:41;;;;;;;5.65;2.00;;;9.20;99.90;;;;;;5034315;28;20494;-83
2024/04/04 07:05:09;;;;;;;10.05;2.55;;;9.30;99.90;;;;;;5030328;28;20101;-83
2024/04/04 07:07:36;;;;;;;5.85;2.00;;;9.20;99.90;;;;;;5034724;28;20045;-83
2024/04/04 07:10:07;;;;;;;11.52;2.60;;;9.20;99.90;;;;;;5036947;28;20096;-84
2024/04/04 07:12:33;;;;;;;6.70;2.30;;;9.20;99.90;;;;;;5036357;28;20030;-83
2024/04/04 07:15:00;;;;;;;7.97;2.30;;;9.80;99.90;;;;;;5036972;28;20057;-83
2024/04/04 07:17:30;;;;;;;7.20;2.30;;;9.30;99.90;;;;;;5046933;28;20034;-83
2024/04/04 07:19:57;;;;;;;8.93;2.65;;;9.30;99.90;;;;;;5054045;28;20038;-83
2024/04/04 07:22:24;;;;;;;6.60;2.20;;;9.30;99.90;;;;;;5047283;28;20521;-83
2024/04/04 07:24:51;;;;;;;5.85;2.53;;;9.90;99.90;;;;;;5031062;28;20867;-83
2024/04/04 07:27:18;;;;;;;6.40;2.67;;;9.30;99.90;;;;;;5037162;28;20073;-83
2024/04/04 07:29:46;;;;;;;5.80;2.60;;;9.30;99.90;;;;;;5042706;28;20041;-83
2024/04/04 07:32:13;;;;;;;8.15;3.10;;;9.40;99.90;;;;;;5032998;28;20061;-84
2024/04/04 07:34:39;;;;;;;6.22;3.08;;;9.40;99.90;;;;;;5039955;28;20037;-83
2024/04/04 07:37:06;;;;;;;8.50;3.38;;;9.40;99.90;;;;;;5057003;28;20041;-85
2024/04/04 07:39:33;;;;;;;7.85;3.50;;;10.20;99.90;;;;;;5035436;28;20030;-84
2024/04/04 07:42:00;;;;;;;10.05;3.38;;;10.00;99.90;;;;;;5038497;28;20556;-84
2024/04/04 07:44:27;;;;;;;7.70;3.67;;;9.40;99.90;;;;;;5031230;28;20541;-83
2024/04/04 07:46:55;;;;;;;10.00;3.72;;;9.50;99.90;;;;;;5031549;28;20049;-83
2024/04/04 07:49:22;;;;;;;9.55;3.72;;;10.00;99.90;;;;;;5050417;28;20040;-84
2024/04/04 07:51:49;;;;;;;7.95;3.88;;;9.50;99.90;;;;;;5045751;28;20495;-84
2024/04/04 07:54:16;;;;;;;6.70;3.63;;;9.60;99.90;;;;;;5050307;28;20041;-84
2024/04/04 07:56:42;;;;;;;6.88;3.75;;;10.40;99.90;;;;;;5037616;28;20037;-84
2024/04/04 07:59:09;;;;;;;7.20;3.80;;;9.60;99.90;;;;;;5047981;28;20520;-84
2024/04/04 08:01:37;;;;;;;8.27;3.97;;;9.60;99.90;;;;;;5044302;28;20097;-85
2024/04/04 08:04:04;;;;;;;8.57;3.90;;;9.70;99.90;;;;;;5036862;28;20125;-84
2024/04/04 08:06:30;;;;;;;7.50;4.22;;;9.70;99.90;;;;;;5036539;28;20129;-84
2024/04/04 08:08:59;;;;;;;6.05;3.67;;;9.70;99.90;;;;;;5042450;28;20125;-85
2024/04/04 08:11:25;;;;;;;7.88;4.25;;;9.90;99.90;;;;;;5036700;28;20107;-85
2024/04/04 08:13:52;;;;;;;8.50;3.97;;;9.80;99.90;;;;;;5039582;28;20388;-84
2024/04/04 08:16:19;;;;;;;7.57;4.32;;;10.00;99.90;;;;;;5037776;28;20045;-84
2024/04/04 08:18:46;;;;;;;6.75;4.32;;;10.00;99.90;;;;;;5055300;28;20120;-84
2024/04/04 08:21:15;;;;;;;7.85;4.20;;;10.00;99.90;;;;;;5034244;28;20042;-84
2024/04/04 08:23:42;;;;;;;8.20;4.07;;;10.00;99.90;;;;;;5039625;28;20049;-83
2024/04/04 08:26:08;;;;;;;7.53;4.60;;;10.20;99.90;;;;;;5047848;28;20064;-84
2024/04/04 08:28:35;;;;;;;8.23;4.88;;;10.20;99.90;;;;;;5055047;28;20049;-83
2024/04/04 08:31:03;;;;;;;8.05;4.72;;;10.30;99.90;;;;;;5032639;28;20128;-84
2024/04/04 08:33:30;;;;;;;7.05;4.60;;;10.40;99.90;;;;;;5037491;28;20495;-84
2024/04/04 08:35:58;;;;;;;6.28;4.68;;;10.50;99.90;;;;;;5032658;28;20046;-84
2024/04/04 08:38:25;;;;;;;7.80;4.70;;;10.50;99.90;;;;;;5031691;28;20121;-85
2024/04/04 08:40:57;;;;;;;8.82;5.05;;;10.60;99.90;;;;;;5043228;28;20533;-85
2024/04/04 08:43:24;;;;;;;9.25;4.63;;;10.70;99.90;;;;;;5035883;28;20037;-85
2024/04/04 08:45:52;;;;;;;9.98;4.70;;;10.70;99.90;;;;;;5036570;28;20125;-85
2024/04/04 08:48:25;;;;;;;6.00;3.90;;;10.60;99.90;;;;;;5045524;28;20044;-86
2024/04/04 08:50:52;;;;;;;8.80;4.45;;;10.70;99.90;;;;;;5057200;28;20892;-85
2024/04/04 08:53:23;;;;;;;6.95;4.35;;;10.70;99.90;;;;;;5050507;28;20124;-85
2024/04/04 08:55:51;;;;;;;7.10;4.07;;;10.60;99.90;;;;;;5038452;28;20045;-84
2024/04/04 08:58:18;;;;;;;9.45;4.95;;;10.60;99.90;;;;;;5039625;28;20034;-85
2024/04/04 09:00:46;;;;;;;7.45;4.20;;;10.60;99.90;;;;;;5040171;28;20128;-85
2024/04/04 09:03:13;;;;;;;8.65;4.15;;;10.60;99.90;;;;;;5038650;28;20095;-84
2024/04/04 09:05:47;;;;;;;7.85;3.97;;;11.00;99.90;;;;;;5050826;28;20045;-84
2024/04/04 09:08:14;;;;;;;6.37;4.17;;;10.60;99.90;;;;;;5044735;28;20096;-85
2024/04/04 09:10:42;;;;;;;8.57;4.47;;;10.60;99.90;;;;;;5045764;28;20089;-84
2024/04/04 09:13:10;;;;;;;9.27;4.43;;;10.70;99.90;;;;;;5033112;28;20088;-84
2024/04/04 09:15:39;;;;;;;6.55;4.43;;;10.70;99.90;;;;;;5036900;28;20499;-84
2024/04/04 09:18:10;;;;;;;6.70;4.38;;;10.70;99.90;;;;;;5040184;28;20076;-85
2024/04/04 09:20:41;;;;;;;6.43;4.40;;;10.70;99.90;;;;;;5051048;28;20171;-85
2024/04/04 09:23:09;;;;;;;6.78;4.45;;;10.80;99.90;;;;;;5032844;28;20495;-85
2024/04/04 09:25:40;;;;;;;8.15;4.00;;;10.80;99.90;;;;;;5032794;28;20069;-85
2024/04/04 09:28:09;;;;;;;5.55;3.95;;;11.20;99.90;;;;;;5044386;28;20867;-84
2024/04/04 09:30:36;;;;;;;9.02;3.85;;;11.40;99.90;;;;;;5057416;28;20038;-85
2024/04/04 09:33:06;;;;;;;6.90;3.60;;;11.00;99.90;;;;;;5034789;28;20498;-85
2024/04/04 09:35:33;;;;;;;9.15;3.83;;;10.50;99.90;;;;;;5037154;28;20038;-86
2024/04/04 09:38:00;;;;;;;6.82;3.53;;;11.20;99.90;;;;;;5051308;28;20040;-85
2024/04/04 09:40:27;;;;;;;11.02;3.70;;;11.10;99.90;;;;;;5041201;28;20124;-86
2024/04/04 09:42:54;;;;;;;5.63;3.65;;;11.40;99.90;;;;;;5040994;28;20087;-86
2024/04/04 09:45:21;;;;;;;6.15;3.38;;;11.10;99.90;;;;;;5054553;28;20044;-84
2024/04/04 09:47:49;;;;;;;6.55;3.05;;;11.10;99.90;;;;;;5055232;28;20133;-85
2024/04/04 09:50:17;;;;;;;6.03;3.10;;;11.10;99.90;;;;;;5040750;28;20037;-85
2024/04/04 09:52:44;;;;;;;4.80;2.70;;;11.20;99.90;;;;;;5040356;28;20033;-85
2024/04/04 09:55:21;;;;;;;5.60;2.70;;;11.20;99.90;;;;;;5041704;28;20045;-85
2024/04/04 09:57:48;;;;;;;5.78;2.60;;;11.20;99.90;;;;;;5045513;28;20044;-85
2024/04/04 10:00:17;;;;;;;5.43;2.90;;;11.60;99.90;;;;;;5040500;28;20048;-85
2024/04/04 10:02:56;;;;;;;4.47;2.42;;;11.30;99.90;;;;;;5046325;28;20094;-85
2024/04/04 10:05:33;;;;;;;5.82;3.10;;;11.40;99.90;;;;;;5041351;28;20037;-85
2024/04/04 10:08:28;;;;;;;5.53;2.72;;;11.40;99.90;;;;;;5032027;28;20511;-85
2024/04/04 10:11:04;;;;;;;7.25;3.10;;;11.50;99.90;;;;;;5036876;28;20057;-86
2024/04/04 10:13:31;;;;;;;7.55;3.25;;;11.50;99.90;;;;;;5053351;28;20048;-85
2024/04/04 10:15:58;;;;;;;5.90;3.15;;;11.50;99.90;;;;;;5039894;28;20034;-86
2024/04/04 10:18:25;;;;;;;7.13;3.28;;;11.60;99.90;;;;;;5032342;28;20037;-84
2024/04/04 10:20:52;;;;;;;5.95;3.30;;;11.60;99.90;;;;;;5053529;28;20112;-86
2024/04/04 10:23:26;;;;;;;5.50;3.17;;;11.60;99.90;;;;;;5041513;28;20474;-85
2024/04/04 10:25:52;;;;;;;5.75;3.00;;;11.60;99.90;;;;;;5049387;28;20052;-85
2024/04/04 10:28:19;;;;;;;6.28;3.17;;;11.60;99.90;;;;;;5047944;28;20045;-84
2024/04/04 10:30:47;;;;;;;6.80;2.85;;;11.50;99.90;;;;;;5041437;28;20047;-84
2024/04/04 10:33:20;;;;;;;9.23;3.20;;;11.60;99.90;;;;;;5038827;28;20041;-84
2024/04/04 10:36:01;;;;;;;6.50;2.90;;;11.60;99.90;;;;;;5041277;28;20034;-84
2024/04/04 10:38:28;;;;;;;9.55;3.28;;;11.60;99.90;;;;;;5064200;28;20499;-84
2024/04/04 10:40:58;;;;;;;7.10;3.08;;;12.10;99.90;;;;;;5062824;28;20073;-85
2024/04/04 10:43:27;;;;;;;11.13;3.28;;;11.50;99.90;;;;;;5032088;28;20133;-85
2024/04/04 10:45:54;;;;;;;7.13;3.05;;;11.50;99.90;;;;;;5036404;28;20041;-85
2024/04/04 10:48:21;;;;;;;7.93;3.40;;;11.50;99.90;;;;;;5039304;28;20092;-85
2024/04/04 10:50:48;;;;;;;5.13;3.15;;;11.50;99.90;;;;;;5047913;28;20526;-85
2024/04/04 10:53:15;;;;;;;7.55;3.35;;;11.50;99.90;;;;;;5035238;28;20030;-85
2024/04/04 10:55:42;;;;;;;10.80;3.67;;;12.00;99.90;;;;;;5034233;28;20480;-85
2024/04/04 10:58:09;;;;;;;6.35;3.50;;;11.50;99.90;;;;;;5041414;28;20065;-85
2024/04/04 11:00:39;;;;;;;6.35;3.03;;;11.50;99.90;;;;;;5042656;28;20033;-86
2024/04/04 11:03:09;;;;;;;9.07;3.53;;;11.50;99.90;;;;;;5034098;28;20469;-86
2024/04/04 11:05:36;;;;;;;5.97;3.00;;;11.60;99.90;;;;;;5039921;28;20384;-86
2024/04/04 11:08:05;;;;;;;6.80;3.30;;;11.50;99.90;;;;;;5037110;28;20057;-86
2024/04/04 11:10:32;;;;;;;5.88;2.90;;;11.50;99.90;;;;;;5042483;28;20053;-85
2024/04/04 11:12:59;;;;;;;6.55;2.83;;;11.50;99.90;;;;;;5035722;28;20033;-85
2024/04/04 11:15:26;;;;;;;6.13;2.83;;;11.50;99.90;;;;;;5049801;28;20038;-85
2024/04/04 11:17:58;;;;;;;5.97;2.60;;;11.50;99.90;;;;;;5032986;28;20869;-86
2024/04/04 11:20:26;;;;;;;5.70;2.45;;;11.40;99.90;;;;;;5045325;28;20100;-87
2024/04/04 11:22:55;;;;;;;5.88;2.63;;;11.50;99.90;;;;;;5033698;28;20042;-86
2024/04/04 11:25:21;;;;;;;6.25;2.50;;;11.50;99.90;;;;;;5030482;28;20073;-86
2024/04/04 11:27:48;;;;;;;8.20;2.30;;;11.50;99.90;;;;;;5049926;28;20080;-86
2024/04/04 11:30:14;;;;;;;4.10;1.90;;;11.50;99.90;;;;;;5053721;28;20038;-86
2024/04/04 11:32:41;;;;;;;3.50;1.50;;;11.40;99.90;;;;;;5044519;28;20034;-87
2024/04/04 11:35:08;;;;;;;5.55;1.63;;;11.40;99.90;;;;;;5041309;28;20045;-86
2024/04/04 11:37:35;;;;;;;2.75;1.25;;;11.40;99.90;;;;;;5037393;28;20042;-86
2024/04/04 11:40:03;;;;;;;4.93;1.30;;;11.50;99.90;;;;;;5038925;28;20041;-86
2024/04/04 11:42:30;;;;;;;3.80;1.50;;;11.40;99.90;;;;;;5036950;28;20401;-86
2024/04/04 11:44:57;;;;;;;4.28;1.48;;;11.50;99.90;;;;;;5042405;28;20048;-86
2024/04/04 11:47:23;;;;;;;6.55;2.10;;;11.50;99.90;;;;;;5054887;28;20064;-86
2024/04/04 11:49:50;;;;;;;4.32;2.38;;;12.00;99.90;;;;;;5040897;28;20038;-86
2024/04/04 11:52:17;;;;;;;6.43;2.10;;;11.50;99.90;;;;;;5041763;28;20113;-86
2024/04/04 11:54:43;;;;;;;4.70;1.92;;;11.60;99.90;;;;;;5044480;28;20037;-86
2024/04/04 11:57:10;;;;;;;7.13;3.65;;;11.50;99.90;;;;;;5054275;28;20402;-86
2024/04/04 11:59:37;;;;;;;9.82;4.35;;;11.70;99.90;;;;;;5041499;28;20029;-86
2024/04/04 12:02:03;;;;;;;11.70;2.92;;;11.80;99.90;;;;;;5041045;28;20037;-86
2024/04/04 12:04:40;;;;;;;10.15;2.60;;;11.90;99.90;;;;;;5030048;28;20120;-86
2024/04/04 12:07:06;;;;;;;12.68;2.80;;;12.10;99.90;;;;;;5056135;28;20061;-86
2024/04/04 12:09:33;;;;;;;10.10;3.22;;;12.20;99.90;;;;;;5049763;28;20128;-85
2024/04/04 12:12:00;;;;;;;8.60;2.95;;;12.40;99.90;;;;;;5050581;28;20406;-86
2024/04/04 12:14:30;;;;;;;12.68;5.30;;;12.30;99.90;;;;;;5039019;28;20077;-86
2024/04/04 12:16:56;;;;;;;8.82;2.65;;;12.20;99.90;;;;;;5036233;28;20441;-86
2024/04/04 12:19:26;;;;;;;8.02;2.42;;;12.20;99.90;;;;;;5044417;28;20104;-86
2024/04/04 12:21:54;;;;;;;9.35;2.30;;;12.20;99.90;;;;;;5040004;28;20483;-86
2024/04/04 12:24:21;;;;;;;8.32;2.15;;;12.30;99.90;;;;;;5034138;28;20099;-86
2024/04/04 12:26:51;;;;;;;7.75;1.92;;;12.20;99.90;;;;;;5049290;28;20041;-86
2024/04/04 12:29:19;;;;;;;7.20;1.67;;;12.30;99.90;;;;;;5050735;28;20121;-86
2024/04/04 12:31:49;;;;;;;6.50;1.60;;;12.40;99.90;;;;;;5067347;28;20045;-86
2024/04/04 12:34:16;;;;;;;6.28;1.80;;;12.70;99.90;;;;;;5054804;28;20454;-87
2024/04/04 12:36:42;;;;;;;11.55;2.45;;;12.80;99.90;;;;;;5057483;28;20041;-86
2024/04/04 12:39:12;;;;;;;9.88;1.88;;;12.90;99.90;;;;;;5044114;28;20041;-86
2024/04/04 12:41:39;;;;;;;6.97;1.60;;;12.90;99.90;;;;;;5037901;28;20446;-86
2024/04/04 12:44:05;;;;;;;9.20;2.10;;;12.90;99.90;;;;;;5053040;28;20091;-86
2024/04/04 12:46:33;;;;;;;6.82;1.88;;;12.80;99.90;;;;;;5048237;28;20488;-86
2024/04/04 12:49:00;;;;;;;8.85;2.17;;;12.70;99.90;;;;;;5049725;28;20034;-86
2024/04/04 12:51:27;;;;;;;8.60;1.48;;;12.70;99.90;;;;;;5053214;28;20038;-86
2024/04/04 12:53:54;;;;;;;10.43;1.80;;;12.70;99.90;;;;;;5037004;28;20056;-85